createdAt,value
2022-09-24T00:01:49.148Z,60.91
2022-09-24T00:04:54.485Z,60.41
2022-09-24T00:07:59.621Z,58.76
2022-09-24T00:11:06.257Z,56.10
2022-09-24T00:14:11.494Z,56.86
2022-09-24T00:17:17.043Z,57.77
2022-09-24T00:20:22.754Z,58.41
2022-09-24T00:23:28.510Z,58.61
2022-09-24T00:26:52.496Z,58.06
2022-09-24T00:29:57.993Z,58.48
2022-09-24T00:33:03.145Z,58.31
2022-09-24T00:36:08.798Z,59.41
2022-09-24T00:39:14.370Z,60.88
2022-09-24T00:42:22.064Z,60.82
2022-09-24T00:45:29.001Z,60.63
2022-09-24T00:48:35.146Z,61.24
2022-09-24T00:51:41.230Z,63.14
2022-09-24T00:54:47.057Z,68.26
2022-09-24T00:57:55.852Z,73.76
2022-09-24T01:01:04.908Z,71.74
2022-09-24T01:04:11.793Z,68.10
2022-09-24T01:07:17.227Z,65.26
2022-09-24T01:10:38.828Z,62.75
2022-09-24T01:13:55.622Z,60.58
2022-09-24T01:17:11.671Z,58.73
2022-09-24T01:20:45.094Z,56.00
2022-09-24T01:24:07.802Z,56.65
2022-09-24T01:27:17.604Z,57.11
2022-09-24T01:30:22.968Z,57.24
2022-09-24T01:33:29.918Z,56.87
2022-09-24T01:36:37.156Z,57.47
2022-09-24T01:39:43.241Z,57.80
2022-09-24T01:42:49.255Z,57.95
2022-09-24T01:45:56.214Z,58.39
2022-09-24T01:49:01.716Z,59.55
2022-09-24T01:52:11.026Z,61.11
2022-09-24T01:55:18.823Z,61.54
2022-09-24T01:58:25.022Z,61.52
2022-09-24T02:01:32.551Z,64.62
2022-09-24T02:04:40.201Z,70.68
2022-09-24T02:07:50.785Z,70.68
2022-09-24T02:10:59.862Z,70.92
2022-09-24T02:14:07.930Z,69.05
2022-09-24T02:17:13.831Z,66.38
2022-09-24T02:20:22.305Z,63.76
2022-09-24T02:23:29.382Z,62.25
2022-09-24T02:26:35.067Z,60.51
2022-09-24T02:29:40.705Z,57.43
2022-09-24T02:32:46.226Z,56.55
2022-09-24T02:35:53.566Z,57.92
2022-09-24T02:38:59.124Z,58.04
2022-09-24T02:42:06.052Z,58.63
2022-09-24T02:45:12.582Z,58.89
2022-09-24T02:48:18.032Z,58.23
2022-09-24T02:51:23.376Z,58.85
2022-09-24T02:54:28.716Z,59.62
2022-09-24T02:57:34.490Z,59.54
2022-09-24T03:00:39.980Z,60.55
2022-09-24T03:03:45.609Z,61.45
2022-09-24T03:06:50.933Z,62.32
2022-09-24T03:09:56.267Z,67.69
2022-09-24T03:13:01.446Z,73.07
2022-09-24T03:16:07.393Z,71.77
2022-09-24T03:19:12.640Z,68.83
2022-09-24T03:22:17.988Z,66.94
2022-09-24T03:25:25.390Z,64.89
2022-09-24T03:28:30.994Z,63.72
2022-09-24T03:31:36.396Z,62.60
2022-09-24T03:34:41.726Z,62.29
2022-09-24T03:37:49.223Z,61.24
2022-09-24T03:40:54.792Z,60.82
2022-09-24T03:44:00.242Z,60.54
2022-09-24T03:47:05.884Z,60.28
2022-09-24T03:50:11.642Z,60.18
2022-09-24T03:53:17.612Z,60.54
2022-09-24T03:56:23.101Z,60.20
2022-09-24T03:59:28.448Z,59.88
2022-09-24T04:02:33.881Z,58.00
2022-09-24T04:05:40.334Z,56.96
2022-09-24T04:08:45.734Z,57.86
2022-09-24T04:11:52.845Z,59.16
2022-09-24T04:18:17.421Z,59.69
2022-09-24T04:21:24.999Z,59.38
2022-09-24T04:24:30.297Z,59.53
2022-09-24T04:27:36.811Z,60.03
2022-09-24T04:30:42.803Z,59.96
2022-09-24T04:33:48.248Z,60.20
2022-09-24T04:36:53.783Z,60.76
2022-09-24T04:39:59.561Z,61.11
2022-09-24T04:43:06.257Z,61.74
2022-09-24T04:46:11.868Z,61.95
2022-09-24T04:49:17.353Z,62.40
2022-09-24T04:52:26.937Z,69.39
2022-09-24T04:55:33.262Z,75.59
2022-09-24T04:58:38.627Z,74.37
2022-09-24T05:01:44.002Z,72.14
2022-09-24T05:04:49.803Z,70.02
2022-09-24T05:07:56.879Z,68.47
2022-09-24T05:11:02.747Z,67.31
2022-09-24T05:14:08.608Z,65.56
2022-09-24T05:17:13.918Z,64.29
2022-09-24T05:20:19.567Z,63.28
2022-09-24T05:23:25.125Z,62.38
2022-09-24T05:26:47.861Z,61.83
2022-09-24T05:29:53.172Z,61.34
2022-09-24T05:32:58.645Z,60.90
2022-09-24T05:36:04.906Z,60.45
2022-09-24T05:39:10.169Z,60.23
2022-09-24T05:42:15.363Z,59.90
2022-09-24T05:45:23.585Z,59.28
2022-09-24T05:48:29.036Z,57.26
2022-09-24T05:51:34.288Z,57.57
2022-09-24T05:54:39.571Z,58.38
2022-09-24T05:57:44.982Z,58.64
2022-09-24T06:00:50.461Z,58.69
2022-09-24T06:03:56.629Z,58.86
2022-09-24T06:07:03.427Z,58.91
2022-09-24T06:10:09.648Z,59.57
2022-09-24T06:13:18.137Z,60.61
2022-09-24T06:16:23.676Z,63.19
2022-09-24T06:19:29.353Z,69.78
2022-09-24T06:22:34.737Z,71.03
2022-09-24T06:25:40.167Z,67.30
2022-09-24T06:28:45.608Z,64.53
2022-09-24T06:31:53.286Z,61.72
2022-09-24T06:34:59.389Z,61.26
2022-09-24T06:38:05.440Z,60.68
2022-09-24T06:41:10.749Z,57.35
2022-09-24T06:44:17.657Z,54.85
2022-09-24T06:47:24.117Z,55.23
2022-09-24T06:50:31.831Z,55.69
2022-09-24T06:53:37.565Z,57.69
2022-09-24T06:56:43.275Z,57.34
2022-09-24T06:59:48.644Z,57.81
2022-09-24T07:02:56.087Z,61.07
2022-09-24T07:06:03.408Z,65.56
2022-09-24T07:09:08.852Z,63.51
2022-09-24T07:12:14.145Z,59.95
2022-09-24T07:15:19.567Z,54.26
2022-09-24T07:18:24.911Z,53.50
2022-09-24T07:21:30.106Z,54.15
2022-09-24T07:24:35.384Z,54.64
2022-09-24T07:27:40.598Z,54.99
2022-09-24T07:30:46.010Z,55.61
2022-09-24T07:33:51.877Z,55.73
2022-09-24T07:36:58.105Z,55.37
2022-09-24T07:40:03.567Z,60.16
2022-09-24T07:43:12.423Z,64.39
2022-09-24T07:46:18.023Z,61.50
2022-09-24T07:49:23.297Z,55.00
2022-09-24T07:52:28.969Z,51.71
2022-09-24T07:55:41.382Z,51.69
2022-09-24T07:58:50.609Z,51.78
2022-09-24T08:01:56.200Z,52.84
2022-09-24T08:05:02.635Z,53.08
2022-09-24T08:08:08.476Z,54.36
2022-09-24T08:11:13.923Z,55.51
2022-09-24T08:14:19.346Z,55.43
2022-09-24T08:17:24.980Z,55.28
2022-09-24T08:20:31.717Z,57.27
2022-09-24T08:23:37.608Z,57.83
2022-09-24T08:26:42.940Z,62.92
2022-09-24T08:29:48.451Z,60.02
2022-09-24T08:32:53.900Z,51.40
2022-09-24T08:36:00.093Z,49.55
2022-09-24T08:39:07.045Z,48.82
2022-09-24T08:42:16.712Z,52.84
2022-09-24T08:45:39.931Z,51.35
2022-09-24T08:48:46.885Z,50.63
2022-09-24T08:51:57.631Z,48.89
2022-09-24T08:55:05.742Z,51.53
2022-09-24T08:58:23.840Z,51.25
2022-09-24T09:01:32.934Z,53.03
2022-09-24T09:04:43.728Z,50.87
2022-09-24T09:07:52.728Z,49.71
2022-09-24T09:10:59.925Z,50.25
2022-09-24T09:14:10.126Z,49.47
2022-09-24T09:17:23.280Z,52.24
2022-09-24T09:20:31.710Z,53.47
2022-09-24T09:23:39.969Z,55.97
2022-09-24T09:26:47.866Z,55.43
2022-09-24T09:29:56.711Z,53.67
2022-09-24T09:33:10.303Z,52.86
2022-09-24T09:36:28.041Z,55.57
2022-09-24T09:39:40.128Z,55.57
2022-09-24T09:42:45.659Z,56.06
2022-09-24T09:45:58.648Z,55.43
2022-09-24T09:49:07.154Z,54.39
2022-09-24T09:52:14.816Z,54.25
2022-09-24T09:55:25.132Z,54.96
2022-09-24T09:58:32.108Z,54.02
2022-09-24T10:01:40.653Z,52.85
2022-09-24T10:04:46.046Z,52.74
2022-09-24T10:07:51.343Z,51.84
2022-09-24T10:10:57.612Z,51.94
2022-09-24T10:14:06.569Z,53.94
2022-09-24T10:17:14.695Z,53.23
2022-09-24T10:20:22.588Z,52.57
2022-09-24T10:23:32.578Z,52.71
2022-09-24T10:26:43.989Z,52.85
2022-09-24T10:30:11.616Z,51.07
2022-09-24T10:33:16.970Z,49.87
2022-09-24T10:36:26.703Z,50.50
2022-09-24T10:39:32.297Z,50.39
2022-09-24T10:42:38.500Z,47.97
2022-09-24T10:45:56.888Z,47.54
2022-09-24T10:49:05.623Z,47.59
2022-09-24T10:52:21.150Z,47.43
2022-09-24T10:55:38.783Z,46.59
2022-09-24T10:59:03.602Z,45.47
2022-09-24T11:02:35.026Z,45.81
2022-09-24T11:05:46.179Z,45.61
2022-09-24T11:09:02.196Z,46.03
2022-09-24T11:12:14.344Z,45.86
2022-09-24T11:15:27.748Z,45.80
2022-09-24T11:18:41.370Z,45.61
2022-09-24T11:21:57.838Z,45.05
2022-09-24T11:25:18.880Z,44.28
2022-09-24T11:28:32.321Z,43.69
2022-09-24T11:31:42.219Z,45.51
2022-09-24T11:35:03.504Z,45.56
2022-09-24T11:38:10.560Z,45.73
2022-09-24T11:41:22.726Z,45.79
2022-09-24T11:44:44.422Z,45.68
2022-09-24T11:47:58.871Z,44.97
2022-09-24T11:51:12.099Z,44.68
2022-09-24T11:54:22.267Z,45.00
2022-09-24T11:57:29.823Z,44.14
2022-09-24T12:00:40.772Z,42.88
2022-09-24T12:03:52.449Z,44.02
2022-09-24T12:07:04.023Z,44.60
2022-09-24T12:10:26.024Z,44.49
2022-09-24T12:13:34.347Z,44.14
2022-09-24T12:16:40.987Z,43.15
2022-09-24T12:19:51.680Z,43.74
2022-09-24T12:23:00.275Z,43.26
2022-09-24T12:26:06.674Z,42.09
2022-09-24T12:29:49.081Z,41.72
2022-09-24T12:32:59.250Z,41.38
2022-09-24T12:36:08.413Z,41.61
2022-09-24T12:39:18.706Z,41.09
2022-09-24T12:42:25.989Z,41.36
2022-09-24T12:45:31.966Z,41.19
2022-09-24T12:48:38.436Z,41.38
2022-09-24T12:51:43.649Z,41.19
2022-09-24T12:54:55.719Z,40.89
2022-09-24T12:58:03.124Z,41.19
2022-09-24T13:01:10.297Z,41.16
2022-09-24T13:04:30.437Z,41.47
2022-09-24T13:07:37.458Z,41.66
2022-09-24T13:10:56.383Z,41.47
2022-09-24T13:14:05.637Z,41.31
2022-09-24T13:17:15.666Z,42.38
2022-09-24T13:20:26.601Z,42.21
2022-09-24T13:23:33.944Z,41.12
2022-09-24T13:26:39.291Z,42.72
2022-09-24T13:29:44.544Z,42.52
2022-09-24T13:32:52.088Z,42.40
2022-09-24T13:36:07.532Z,42.29
2022-09-24T13:39:17.318Z,42.11
2022-09-24T13:42:28.623Z,42.11
2022-09-24T13:45:35.140Z,42.09
2022-09-24T13:48:43.332Z,41.21
2022-09-24T13:51:56.763Z,41.89
2022-09-24T13:55:06.638Z,41.92
2022-09-24T13:58:27.072Z,41.27
2022-09-24T14:01:36.672Z,41.80
2022-09-24T14:04:44.559Z,41.87
2022-09-24T14:08:01.209Z,40.94
2022-09-24T14:11:09.790Z,40.27
2022-09-24T14:14:18.296Z,40.90
2022-09-24T14:17:23.549Z,40.91
2022-09-24T14:20:30.472Z,41.74
2022-09-24T14:23:39.058Z,40.68
2022-09-24T14:26:47.757Z,39.78
2022-09-24T14:29:56.028Z,39.60
2022-09-24T14:33:03.677Z,40.41
2022-09-24T14:36:11.494Z,39.79
2022-09-24T14:39:16.809Z,39.69
2022-09-24T14:42:25.701Z,41.82
2022-09-24T14:45:34.296Z,42.77
2022-09-24T14:48:41.184Z,42.53
2022-09-24T14:51:53.340Z,42.56
2022-09-24T14:55:15.804Z,41.84
2022-09-24T14:58:33.248Z,42.30
2022-09-24T15:01:41.108Z,41.36
2022-09-24T15:04:50.815Z,39.28
2022-09-24T15:08:11.733Z,38.02
2022-09-24T15:11:19.128Z,37.54
2022-09-24T15:14:33.027Z,38.84
2022-09-24T15:17:38.183Z,39.07
2022-09-24T15:20:44.251Z,39.28
2022-09-24T15:23:49.649Z,38.52
2022-09-24T15:27:02.723Z,38.14
2022-09-24T15:30:11.489Z,37.03
2022-09-24T15:33:17.578Z,36.74
2022-09-24T15:36:23.965Z,37.14
2022-09-24T15:39:29.468Z,37.97
2022-09-24T15:42:34.633Z,38.95
2022-09-24T15:45:40.024Z,38.81
2022-09-24T15:48:45.384Z,38.73
2022-09-24T15:51:51.448Z,39.34
2022-09-24T15:54:58.447Z,39.81
2022-09-24T15:58:03.948Z,39.95
2022-09-24T16:01:14.371Z,40.39
2022-09-24T16:04:19.751Z,40.57
2022-09-24T16:07:28.317Z,41.02
2022-09-24T16:10:33.586Z,41.51
2022-09-24T16:13:40.047Z,42.83
2022-09-24T16:16:45.189Z,42.77
2022-09-24T16:19:50.392Z,43.17
2022-09-24T16:22:55.690Z,44.02
2022-09-24T16:26:01.445Z,44.80
2022-09-24T16:29:09.863Z,44.68
2022-09-24T16:32:15.311Z,45.13
2022-09-24T16:38:40.255Z,46.58
2022-09-24T16:41:45.784Z,48.17
2022-09-24T16:44:51.187Z,47.60
2022-09-24T16:47:56.323Z,47.71
2022-09-24T16:51:05.420Z,48.32
2022-09-24T16:54:13.804Z,49.25
2022-09-24T16:57:19.153Z,50.45
2022-09-24T17:00:24.607Z,49.55
2022-09-24T17:03:29.850Z,51.15
2022-09-24T17:06:35.216Z,50.58
2022-09-24T17:09:58.229Z,50.82
2022-09-24T17:13:03.808Z,50.73
2022-09-24T17:16:09.190Z,50.97
2022-09-24T17:19:15.338Z,51.36
2022-09-24T17:22:20.601Z,51.80
2022-09-24T17:25:27.932Z,52.13
2022-09-24T17:28:34.519Z,52.14
2022-09-24T17:31:43.376Z,52.18
2022-09-24T17:34:49.143Z,52.36
2022-09-24T17:37:54.524Z,52.46
2022-09-24T17:41:05.136Z,52.53
2022-09-24T17:44:12.467Z,52.78
2022-09-24T17:47:18.987Z,52.99
2022-09-24T17:50:24.299Z,53.22
2022-09-24T17:53:33.131Z,53.56
2022-09-24T17:56:39.304Z,53.83
2022-09-24T17:59:45.525Z,53.95
2022-09-24T18:02:50.781Z,54.18
2022-09-24T18:06:02.108Z,54.51
2022-09-24T18:09:08.290Z,54.76
2022-09-24T18:12:17.326Z,54.90
2022-09-24T18:15:22.992Z,55.24
2022-09-24T18:18:28.123Z,55.47
2022-09-24T18:21:33.535Z,55.66
2022-09-24T18:24:39.106Z,55.89
2022-09-24T18:27:46.556Z,56.25
2022-09-24T18:31:04.828Z,56.46
2022-09-24T18:34:13.261Z,56.65
2022-09-24T18:37:18.803Z,56.76
2022-09-24T18:40:24.367Z,57.09
2022-09-24T18:43:31.317Z,57.33
2022-09-24T18:46:36.930Z,57.57
2022-09-24T18:49:42.379Z,57.79
2022-09-24T18:52:47.808Z,58.00
2022-09-24T18:55:53.409Z,58.23
2022-09-24T18:58:59.789Z,58.48
2022-09-24T19:02:05.326Z,58.73
2022-09-24T19:05:11.374Z,58.95
2022-09-24T19:08:17.460Z,59.03
2022-09-24T19:11:25.664Z,59.27
2022-09-24T19:14:31.450Z,59.55
2022-09-24T19:17:37.840Z,59.68
2022-09-24T19:20:45.523Z,60.14
2022-09-24T19:23:51.844Z,60.55
2022-09-24T19:26:58.925Z,60.79
2022-09-24T19:30:05.232Z,60.88
2022-09-24T19:33:12.576Z,60.89
2022-09-24T19:36:18.366Z,61.01
2022-09-24T19:39:23.922Z,61.08
2022-09-24T19:42:31.800Z,61.11
2022-09-24T19:45:37.402Z,61.18
2022-09-24T19:48:44.076Z,61.52
2022-09-24T19:51:49.433Z,61.79
2022-09-24T19:54:55.002Z,61.76
2022-09-24T19:58:01.597Z,61.80
2022-09-24T20:01:13.681Z,61.91
2022-09-24T20:04:22.177Z,62.11
2022-09-24T20:07:27.744Z,62.44
2022-09-24T20:10:36.561Z,69.60
2022-09-24T20:13:44.210Z,77.27
2022-09-24T20:16:49.617Z,75.07
2022-09-24T20:19:57.443Z,71.08
2022-09-24T20:23:02.877Z,68.72
2022-09-24T20:26:26.105Z,66.53
2022-09-24T20:29:31.495Z,64.81
2022-09-24T20:32:37.356Z,63.25
2022-09-24T20:35:46.147Z,61.76
2022-09-24T20:38:51.661Z,60.65
2022-09-24T20:42:01.736Z,59.77
2022-09-24T20:45:09.348Z,57.91
2022-09-24T20:48:14.756Z,57.40
2022-09-24T20:51:21.013Z,58.41
2022-09-24T20:54:27.038Z,59.60
2022-09-24T20:57:32.857Z,60.90
2022-09-24T21:00:48.544Z,61.90
2022-09-24T21:03:55.007Z,62.46
2022-09-24T21:07:01.115Z,67.79
2022-09-24T21:10:06.833Z,69.83
2022-09-24T21:13:12.992Z,66.42
2022-09-24T21:16:20.863Z,64.34
2022-09-24T21:19:26.509Z,63.23
2022-09-24T21:22:34.574Z,62.37
2022-09-24T21:25:54.026Z,61.52
2022-09-24T21:29:01.748Z,60.59
2022-09-24T21:32:07.999Z,59.95
2022-09-24T21:35:13.376Z,59.40
2022-09-24T21:38:19.999Z,57.50
2022-09-24T21:41:27.304Z,57.04
2022-09-24T21:44:34.288Z,57.91
2022-09-24T21:47:39.832Z,59.21
2022-09-24T21:50:47.425Z,59.98
2022-09-24T21:53:53.559Z,59.79
2022-09-24T21:56:58.933Z,59.07
2022-09-24T22:00:10.324Z,59.44
2022-09-24T22:03:15.559Z,60.14
2022-09-24T22:06:21.020Z,60.54
2022-09-24T22:09:26.812Z,60.92
2022-09-24T22:12:32.012Z,61.07
2022-09-24T22:15:38.004Z,61.38
2022-09-24T22:18:43.181Z,61.66
2022-09-24T22:21:51.637Z,62.05
2022-09-24T22:24:56.864Z,62.46
2022-09-24T22:28:02.309Z,69.22
2022-09-24T22:31:08.854Z,75.70
2022-09-24T22:34:32.221Z,73.25
2022-09-24T22:37:38.331Z,70.90
2022-09-24T22:40:45.341Z,68.96
2022-09-24T22:43:52.105Z,67.88
2022-09-24T22:46:57.673Z,66.58
2022-09-24T22:50:03.092Z,65.36
2022-09-24T22:53:09.116Z,64.09
2022-09-24T22:56:16.401Z,62.95
2022-09-24T22:59:21.682Z,62.76
2022-09-24T23:02:26.897Z,61.81
2022-09-24T23:05:33.675Z,61.13
2022-09-24T23:08:42.678Z,61.00
2022-09-24T23:11:47.982Z,61.66
2022-09-24T23:14:53.698Z,61.97
2022-09-24T23:17:58.908Z,61.80
2022-09-24T23:21:06.346Z,61.43
2022-09-24T23:24:15.876Z,61.28
2022-09-24T23:27:21.312Z,61.35
2022-09-24T23:30:26.904Z,61.27
2022-09-24T23:33:33.685Z,60.98
2022-09-24T23:36:39.816Z,61.01
2022-09-24T23:39:45.576Z,60.88
2022-09-24T23:42:50.892Z,60.46
2022-09-24T23:45:56.458Z,60.27
2022-09-24T23:49:03.871Z,59.91
2022-09-24T23:52:09.348Z,60.28
2022-09-24T23:55:14.954Z,60.70
2022-09-24T23:58:21.085Z,61.37
